• Join FlightAware (Why Join?)
  • Login
  • US Flag 
11:35AM EDT


 

Airport Tracker/Info


-or-


 

Live Flight TrackerFlight Track Log ✈ GLO7710 ✈ 18-Jul-2013 ✈ MDSD / SDQ - KMIA

Flight Track Log - Related Links

Times and Time Zones

All times are in EDT time to prevent confusion due to time zone crossing. See the GLO7710 flight status page for this flight to view local times or setup timezone preferences in your user account.

Time Position Orientation Groundspeed Altitude Reporting Facility
EDT Latitude Longitude Course Direction KTS MPH feet Rate Location/Type
06:50PM 19.1310 -69.8380 354° North 363 418 22,300  Level FlightAware
06:50PM 19.2100 -69.8470 354° North 379 436 23,800 1,260 Climbing FlightAware
06:51PM 19.2840 -69.8540 355° North 414 476 24,200 1,200 Climbing FlightAware
06:52PM 19.3710 -69.8630 354° North 427 491 25,500 1,800 Climbing FlightAware
06:52PM 19.4420 -69.8710 354° North 435 501 26,600 1,080 Climbing FlightAware
06:53PM 19.5730 -69.8850 354° North 442 509 27,400 1,500 Climbing FlightAware
06:54PM 19.6490 -69.8990 350° North 459 528 29,200 2,160 Climbing FlightAware
06:55PM 19.7078 -69.9256 350° North 438 504 29,900 1,320 Climbing Miami Center
06:56PM 19.7956 -70.0247 313° West 444 511 31,400 1,740 Climbing Miami Center
06:57PM 19.8692 -70.1378 305° West 456 525 33,400 1,800 Climbing Miami Center
06:58PM 19.9386 -70.2556 302° West 461 531 35,100 1,560 Climbing Miami Center
06:59PM 20.0081 -70.3692 303° West 461 531 36,600 1,440 Climbing Miami Center
07:00PM 20.0792 -70.4825 304° West 466 536 38,000 1,380 Climbing Miami Center
07:01PM 20.1483 -70.5942 303° West 461 531 39,400 960 Climbing Miami Center
07:02PM 20.2153 -70.7058 303° West 461 531 40,000 300 Climbing Miami Center
07:03PM 20.2842 -70.8133 304° West 456 525 40,000  Level Miami Center
07:04PM 20.3531 -70.9272 303° West 456 525 40,000  Level Miami Center
07:05PM 20.4219 -71.0394 303° West 456 525 40,000  Level Miami Center
07:06PM 20.4928 -71.1514 304° West 456 525 40,000  Level Miami Center
07:07PM 20.5617 -71.2658 303° West 456 525 40,000  Level Miami Center
07:08PM 20.6344 -71.3825 304° West 461 531 40,000  Level Miami Center
07:09PM 20.7033 -71.4992 302° West 467 537 40,000  Level Miami Center
07:10PM 20.7761 -71.6139 304° West 467 537 40,000  Level Miami Center
07:11PM 20.8444 -71.7267 303° West 467 537 40,000  Level Miami Center
07:12PM 20.9150 -71.8439 303° West 467 537 40,000  Level Miami Center
07:13PM 20.9856 -71.9589 303° West 467 537 40,000  Level Miami Center
07:14PM 21.0622 -72.0828 304° West 467 537 40,000  Level Miami Center
07:15PM 21.1328 -72.2006 303° West 467 537 40,000  Level Miami Center
07:16PM 21.2028 -72.3114 304° West 460 529 40,000  Level Miami Center
07:17PM 21.2708 -72.4228 303° West 455 524 40,000  Level Miami Center
07:18PM 21.3367 -72.5364 302° West 455 524 40,000  Level Miami Center
07:19PM 21.4044 -72.6478 303° West 449 517 40,000  Level Miami Center
07:20PM 21.4700 -72.7594 302° West 449 517 40,000  Level Miami Center
07:21PM 21.5375 -72.8711 303° West 449 517 40,000  Level Miami Center
07:22PM 21.6050 -72.9786 304° West 444 511 40,000  Level Miami Center
07:23PM 21.6683 -73.0906 301° West 444 511 40,000  Level Miami Center
07:24PM 21.7378 -73.2003 304° West 444 511 40,000  Level Miami Center
07:25PM 21.7989 -73.3103 301° West 444 511 40,000  Level Miami Center
07:26PM 21.8661 -73.4228 303° West 444 511 40,000  Level Miami Center
07:27PM 21.9333 -73.5328 303° West 444 511 40,000  Level Miami Center
07:28PM 21.9964 -73.6453 301° West 439 505 40,000  Level Miami Center
07:29PM 22.0653 -73.7489 306° West 435 501 40,000  Level Miami Center
07:30PM 22.1303 -73.8594 302° West 435 501 40,000  Level Miami Center
07:31PM 22.1950 -73.9681 303° West 430 495 40,000  Level Miami Center
07:32PM 22.2575 -74.0789 301° West 430 495 40,000  Level Miami Center
07:33PM 22.3222 -74.1875 303° West 430 495 40,000  Level Miami Center
07:34PM 22.3847 -74.2961 302° West 424 488 40,000  Level Miami Center
07:35PM 22.4492 -74.4006 304° West 424 488 40,000  Level Miami Center
07:36PM 22.5092 -74.5072 301° West 424 488 40,000  Level Miami Center
07:37PM 22.5736 -74.6164 303° West 424 488 40,000  Level Miami Center
07:38PM 22.6336 -74.7256 301° West 424 488 40,000  Level Miami Center
07:39PM 22.6978 -74.8325 303° West 424 488 40,000  Level Miami Center
07:40PM 22.7619 -74.9442 302° West 424 488 40,000  Level Miami Center
07:41PM 22.8239 -75.0536 302° West 424 488 40,000  Level Miami Center
07:42PM 22.8878 -75.1633 302° West 424 488 40,000  Level Miami Center
07:43PM 22.9539 -75.2753 303° West 424 488 40,000  Level Miami Center
07:44PM 23.0156 -75.3872 301° West 424 488 40,000  Level Miami Center
07:45PM 23.0772 -75.4972 301° West 424 488 40,000  Level Miami Center
07:46PM 23.1428 -75.6072 303° West 424 488 40,000  Level Miami Center
07:47PM 23.2044 -75.7197 301° West 424 488 40,000  Level Miami Center
07:48PM 23.2553 -75.8097 302° West 424 488 40,000  Level Miami Center
07:49PM 23.3228 -75.9358 300° West 435 501 40,000  Level Miami Center
07:50PM 23.3925 -76.0461 305° West 441 507 40,000  Level Miami Center
07:51PM 23.4578 -76.1567 303° West 441 507 40,000  Level Miami Center
07:52PM 23.5189 -76.2631 302° West 435 501 40,000  Level Miami Center
07:53PM 23.5819 -76.3761 301° West 435 501 40,000  Level Miami Center
07:54PM 23.6450 -76.4822 303° West 429 494 40,000  Level Miami Center
07:55PM 23.7081 -76.5956 301° West 429 494 40,000  Level Miami Center
07:56PM 23.7708 -76.7067 302° West 424 488 40,000  Level Miami Center
07:57PM 23.8336 -76.8181 302° West 424 488 40,000  Level Miami Center
07:58PM 23.8942 -76.9225 302° West 424 488 40,000  Level Miami Center
07:59PM 23.9569 -77.0339 302° West 424 488 40,000  Level Miami Center
08:00PM 24.0194 -77.1478 301° West 424 488 40,000  Level Miami Center
08:01PM 24.0817 -77.2594 301° West 424 488 40,000  Level Miami Center
08:02PM 24.1419 -77.3736 300° West 424 488 40,000  Level Miami Center
08:03PM 24.1708 -77.4967 284° West 424 488 40,000  Level Miami Center
08:04PM 24.1953 -77.6381 281° West 424 488 40,000  Level Miami Center
08:05PM 24.2175 -77.7658 281° West 429 494 40,000  Level Miami Center
08:06PM 24.2375 -77.8981 279° West 434 499 40,000  Level Miami Center
08:07PM 24.2575 -78.0281 280° West 434 499 40,000  Level Miami Center
08:08PM 24.2794 -78.1583 280° West 439 505 40,000  Level Miami Center
08:09PM 24.2992 -78.2883 279° West 439 505 40,000  Level Miami Center
08:10PM 24.3186 -78.4186 279° West 439 505 40,000  Level Miami Center
08:11PM 24.3403 -78.5511 280° West 439 505 40,000 -300 Level Miami Center
08:12PM 24.3597 -78.6792 279° West 445 512 39,400 -840 Descending Miami Center
08:13PM 24.3789 -78.8164 279° West 445 512 38,400 -960 Descending Miami Center
08:14PM 24.4000 -78.9536 280° West 445 512 37,500 -960 Descending Miami Center
08:15PM 24.4208 -79.0886 280° West 450 518 36,500 -900 Descending Miami Center
08:16PM 24.4361 -79.2006 279° West 456 525 35,700 -960 Descending Miami Center
08:17PM 24.4669 -79.3472 283° West 456 525 34,600 -2,580 Descending Miami Center
08:22PM 25.0550 -79.6560 283° West 415 478 18,700 -2,760 Descending FlightAware
08:23PM 25.1370 -79.6730 349° North 403 464 17,100 -2,340 Descending FlightAware
08:24PM 25.2190 -79.6910 349° North 390 449 15,200 -2,520 Descending FlightAware
08:24PM 25.2930 -79.7080 348° North 385 443 13,500 -1,200 Descending FlightAware
08:25PM 25.3670 -79.7250 348° North 376 433 13,400 -120 Descending FlightAware
08:26PM 25.4190 -79.7370 348° North 376 433 13,400 -1,680 Level FlightAware
08:28PM 25.5010 -79.9130 297° West 9,400 -2,220 Descending FlightAware
08:28PM 25.5120 -79.9280 309° West 287 330 9,200 -1,080 Descending FlightAware
08:28PM 25.5340 -79.9590 308° West 283 326 8,700 -1,080 Descending FlightAware
08:29PM 25.5580 -79.9930 308° West 284 327 8,200 -1,020 Descending FlightAware
08:29PM 25.5790 -80.0220 309° West 283 326 7,800 -480 Descending FlightAware
08:30PM 25.6030 -80.0550 309° West 281 323 7,800  Level FlightAware
08:30PM 25.6120 -80.0680 308° West 279 321 7,800  Level FlightAware
08:30PM 25.6320 -80.0960 308° West 264 304 7,800  Level FlightAware
08:31PM 25.6510 -80.1230 308° West 253 291 7,800  Level FlightAware
08:31PM 25.6680 -80.1590 298° West 244 281 7,800 -360 Level FlightAware
08:32PM 25.6760 -80.1910 286° West 243 280 7,500 -900 Descending FlightAware
08:32PM 25.6820 -80.2140 286° West 244 281 7,100 -1,140 Descending FlightAware
08:32PM 25.6910 -80.2480 286° West 243 280 6,600 -1,080 Descending FlightAware
08:33PM 25.7000 -80.2810 287° West 242 278 6,100 -1,080 Descending FlightAware
08:33PM 25.7040 -80.2980 285° West 243 280 5,900 -480 Descending FlightAware
08:34PM 25.7100 -80.3310 281° West 240 276 5,800 -120 Descending FlightAware
08:34PM 25.7090 -80.3600 268° West 238 274 5,800 -240 Level FlightAware
08:35PM 25.7070 -80.3940 266° West 240 276 5,600 -720 Descending FlightAware
08:35PM 25.7050 -80.4330 267° West 242 278 5,100 -1,140 Descending FlightAware
08:35PM 25.7040 -80.4490 266° West 240 276 4,800 -420 Descending FlightAware
08:36PM 25.7020 -80.4980 267° West 232 267 4,700 -720 Descending FlightAware
08:37PM 25.7500 -80.5230 335° Northwest 192 221 3,500 -1,080 Descending FlightAware
08:37PM 25.7570 -80.5130 52° Northeast 187 215 3,400 -780 Descending FlightAware
08:38PM 25.7710 -80.4950 49° Northeast 182 209 3,000 -840 Descending FlightAware
08:38PM 25.7790 -80.4800 59° Northeast 177 204 2,800 -720 Descending FlightAware
08:38PM 25.7790 -80.4740 90° East 176 203 2,700 -1,080 Descending FlightAware
08:39PM 25.7810 -80.4430 86° East 178 205 2,100 -1,020 Descending FlightAware
08:39PM 25.7810 -80.4240 90° East 172 198 1,800 -840 Descending FlightAware
08:40PM 25.7830 -80.4000 85° East 161 185 1,400 -900 Descending FlightAware
08:40PM 25.7830 -80.3790 90° East 140 161 1,000 -480 Descending FlightAware
08:40PM 25.7840 -80.3630 86° East 140 161 1,000  Level FlightAware
08:42PM 25.7870 -80.2940 87° East 39 45 -540 Descending FlightAware
08:43PM 25.7870 -80.2920 90° East 30 35  Level FlightAware
08:43PM 25.7880 -80.2900 61° Northeast 32 37  Level FlightAware
08:43PM 25.7880 -80.2890 90° East 30 35  Level FlightAware
08:44PM 25.7890 -80.2880 42° Northeast 27 31  Level FlightAware
08:44PM 25.7910 -80.2870 24° Northeast 15 17  Level FlightAware
08:45PM 25.7920 -80.2860 42° Northeast 16 18  Level FlightAware
08:46PM 25.7930 -80.2860 360° North 13 15  Level FlightAware
08:47PM 25.7930 -80.2850 90° East 21 24  Level FlightAware
08:47PM 25.7930 -80.2840 90° East 28 32  Level FlightAware
08:48PM 25.7940 -80.2820 61° Northeast 22 25  Level FlightAware
08:50PM 25.7833 -80.2833 77° East  Level FlightAware Approximate